sensor_id;sensor_type;location;lat;lon;timestamp;pressure;altitude;pressure_sealevel;temperature
66027;BMP280;56312;55.976;37.136;2024-02-28T00:01:09;99612.44;;;16.98
66027;BMP280;56312;55.976;37.136;2024-02-28T00:06:16;99608.31;;;16.78
66027;BMP280;56312;55.976;37.136;2024-02-28T00:11:22;99609.69;;;17.01
66027;BMP280;56312;55.976;37.136;2024-02-28T00:16:28;99618.34;;;17.00
66027;BMP280;56312;55.976;37.136;2024-02-28T00:21:34;99620.84;;;16.86
66027;BMP280;56312;55.976;37.136;2024-02-28T00:26:40;99617.81;;;16.79
66027;BMP280;56312;55.976;37.136;2024-02-28T00:31:47;99605.97;;;16.90
66027;BMP280;56312;55.976;37.136;2024-02-28T00:36:53;99602.19;;;16.95
66027;BMP280;56312;55.976;37.136;2024-02-28T00:41:59;99608.03;;;16.83
66027;BMP280;56312;55.976;37.136;2024-02-28T00:47:05;99602.38;;;16.76
66027;BMP280;56312;55.976;37.136;2024-02-28T00:52:11;99605.50;;;16.65
66027;BMP280;56312;55.976;37.136;2024-02-28T00:57:17;99598.03;;;16.76
66027;BMP280;56312;55.976;37.136;2024-02-28T01:02:23;99595.00;;;16.68
66027;BMP280;56312;55.976;37.136;2024-02-28T01:07:29;99590.41;;;16.73
66027;BMP280;56312;55.976;37.136;2024-02-28T01:12:35;99590.50;;;16.72
66027;BMP280;56312;55.976;37.136;2024-02-28T01:17:41;99570.66;;;16.71
66027;BMP280;56312;55.976;37.136;2024-02-28T01:22:46;99588.19;;;16.66
66027;BMP280;56312;55.976;37.136;2024-02-28T01:27:53;99582.41;;;16.61
66027;BMP280;56312;55.976;37.136;2024-02-28T01:32:59;99576.25;;;16.63
66027;BMP280;56312;55.976;37.136;2024-02-28T01:38:05;99578.69;;;16.66
66027;BMP280;56312;55.976;37.136;2024-02-28T01:43:11;99565.63;;;16.68
66027;BMP280;56312;55.976;37.136;2024-02-28T01:48:18;99563.19;;;16.65
66027;BMP280;56312;55.976;37.136;2024-02-28T01:53:24;99566.59;;;16.82
66027;BMP280;56312;55.976;37.136;2024-02-28T01:58:30;99560.13;;;16.57
66027;BMP280;56312;55.976;37.136;2024-02-28T02:03:36;99545.94;;;16.64
66027;BMP280;56312;55.976;37.136;2024-02-28T02:08:42;99554.91;;;16.90
66027;BMP280;56312;55.976;37.136;2024-02-28T02:13:52;99549.91;;;16.71
66027;BMP280;56312;55.976;37.136;2024-02-28T02:18:58;99542.47;;;16.80
66027;BMP280;56312;55.976;37.136;2024-02-28T02:24:05;99549.22;;;16.67
66027;BMP280;56312;55.976;37.136;2024-02-28T02:29:11;99556.38;;;16.79
66027;BMP280;56312;55.976;37.136;2024-02-28T02:34:18;99548.41;;;16.67
66027;BMP280;56312;55.976;37.136;2024-02-28T02:39:23;99542.59;;;16.62
66027;BMP280;56312;55.976;37.136;2024-02-28T02:44:29;99538.41;;;16.91
66027;BMP280;56312;55.976;37.136;2024-02-28T02:49:35;99541.34;;;16.69
66027;BMP280;56312;55.976;37.136;2024-02-28T02:54:41;99540.44;;;16.70
66027;BMP280;56312;55.976;37.136;2024-02-28T02:59:47;99528.09;;;16.58
66027;BMP280;56312;55.976;37.136;2024-02-28T03:04:53;99535.81;;;16.59
66027;BMP280;56312;55.976;37.136;2024-02-28T03:09:59;99535.25;;;16.70
66027;BMP280;56312;55.976;37.136;2024-02-28T03:15:05;99537.28;;;16.80
66027;BMP280;56312;55.976;37.136;2024-02-28T03:20:11;99531.56;;;16.74
66027;BMP280;56312;55.976;37.136;2024-02-28T03:25:18;99541.50;;;16.82
66027;BMP280;56312;55.976;37.136;2024-02-28T03:30:24;99530.28;;;16.82
66027;BMP280;56312;55.976;37.136;2024-02-28T03:35:30;99527.91;;;16.78
66027;BMP280;56312;55.976;37.136;2024-02-28T03:40:36;99529.38;;;16.98
66027;BMP280;56312;55.976;37.136;2024-02-28T03:45:42;99527.34;;;16.88
66027;BMP280;56312;55.976;37.136;2024-02-28T03:50:48;99528.09;;;16.75
66027;BMP280;56312;55.976;37.136;2024-02-28T03:55:54;99522.28;;;16.70
66027;BMP280;56312;55.976;37.136;2024-02-28T04:01:00;99518.34;;;16.63
66027;BMP280;56312;55.976;37.136;2024-02-28T04:06:06;99536.94;;;16.71
66027;BMP280;56312;55.976;37.136;2024-02-28T04:11:12;99530.44;;;16.79
66027;BMP280;56312;55.976;37.136;2024-02-28T04:16:17;99527.47;;;16.70
66027;BMP280;56312;55.976;37.136;2024-02-28T04:21:23;99524.41;;;16.79
66027;BMP280;56312;55.976;37.136;2024-02-28T04:26:29;99524.16;;;16.83
66027;BMP280;56312;55.976;37.136;2024-02-28T04:31:37;99522.75;;;16.93
66027;BMP280;56312;55.976;37.136;2024-02-28T04:36:43;99534.97;;;16.91
66027;BMP280;56312;55.976;37.136;2024-02-28T04:41:49;99533.47;;;16.87
66027;BMP280;56312;55.976;37.136;2024-02-28T04:46:55;99550.16;;;16.81
66027;BMP280;56312;55.976;37.136;2024-02-28T04:52:01;99563.72;;;16.71
66027;BMP280;56312;55.976;37.136;2024-02-28T04:57:07;99566.50;;;16.83
66027;BMP280;56312;55.976;37.136;2024-02-28T05:02:13;99554.78;;;17.08
66027;BMP280;56312;55.976;37.136;2024-02-28T05:07:19;99562.00;;;17.19
66027;BMP280;56312;55.976;37.136;2024-02-28T05:12:25;99559.28;;;17.52
66027;BMP280;56312;55.976;37.136;2024-02-28T05:17:31;99561.28;;;17.47
66027;BMP280;56312;55.976;37.136;2024-02-28T05:22:37;99561.47;;;17.60
66027;BMP280;56312;55.976;37.136;2024-02-28T05:27:43;99564.31;;;18.30
66027;BMP280;56312;55.976;37.136;2024-02-28T05:32:48;99556.59;;;18.85
66027;BMP280;56312;55.976;37.136;2024-02-28T05:37:55;99562.22;;;18.93
66027;BMP280;56312;55.976;37.136;2024-02-28T05:43:01;99552.25;;;19.13
66027;BMP280;56312;55.976;37.136;2024-02-28T05:48:07;99541.28;;;19.08
66027;BMP280;56312;55.976;37.136;2024-02-28T05:53:13;99533.88;;;19.95
66027;BMP280;56312;55.976;37.136;2024-02-28T05:58:19;99535.91;;;20.79
66027;BMP280;56312;55.976;37.136;2024-02-28T06:03:25;99541.75;;;21.32
66027;BMP280;56312;55.976;37.136;2024-02-28T06:08:34;99542.63;;;21.78
66027;BMP280;56312;55.976;37.136;2024-02-28T06:13:42;99550.78;;;22.32
66027;BMP280;56312;55.976;37.136;2024-02-28T06:18:48;99543.47;;;22.59
66027;BMP280;56312;55.976;37.136;2024-02-28T06:23:55;99540.34;;;22.88
66027;BMP280;56312;55.976;37.136;2024-02-28T06:29:01;99551.69;;;23.31
66027;BMP280;56312;55.976;37.136;2024-02-28T06:34:09;99542.13;;;23.41
66027;BMP280;56312;55.976;37.136;2024-02-28T06:39:16;99544.88;;;23.51
66027;BMP280;56312;55.976;37.136;2024-02-28T06:44:22;99526.25;;;23.75
66027;BMP280;56312;55.976;37.136;2024-02-28T06:49:28;99531.00;;;23.81
66027;BMP280;56312;55.976;37.136;2024-02-28T06:54:34;99546.78;;;23.70
66027;BMP280;56312;55.976;37.136;2024-02-28T06:59:40;99545.28;;;23.88
66027;BMP280;56312;55.976;37.136;2024-02-28T07:04:45;99551.25;;;23.90
66027;BMP280;56312;55.976;37.136;2024-02-28T07:09:51;99553.84;;;24.32
66027;BMP280;56312;55.976;37.136;2024-02-28T07:14:57;99544.19;;;25.13
66027;BMP280;56312;55.976;37.136;2024-02-28T07:20:03;99555.59;;;25.32
66027;BMP280;56312;55.976;37.136;2024-02-28T07:25:10;99548.50;;;24.53
66027;BMP280;56312;55.976;37.136;2024-02-28T07:30:16;99544.53;;;24.38
66027;BMP280;56312;55.976;37.136;2024-02-28T07:35:22;99546.75;;;24.23
66027;BMP280;56312;55.976;37.136;2024-02-28T07:40:29;99546.41;;;23.64
66027;BMP280;56312;55.976;37.136;2024-02-28T07:45:35;99529.03;;;23.52
66027;BMP280;56312;55.976;37.136;2024-02-28T07:50:41;99534.03;;;23.33
66027;BMP280;56312;55.976;37.136;2024-02-28T07:55:47;99536.06;;;22.87
66027;BMP280;56312;55.976;37.136;2024-02-28T08:00:53;99535.53;;;22.71
66027;BMP280;56312;55.976;37.136;2024-02-28T08:05:59;99525.94;;;22.48
66027;BMP280;56312;55.976;37.136;2024-02-28T08:11:05;99520.72;;;22.48
66027;BMP280;56312;55.976;37.136;2024-02-28T08:16:10;99510.69;;;22.32
66027;BMP280;56312;55.976;37.136;2024-02-28T08:21:17;99509.44;;;22.14
66027;BMP280;56312;55.976;37.136;2024-02-28T08:26:23;99516.41;;;22.03
66027;BMP280;56312;55.976;37.136;2024-02-28T08:31:29;99520.06;;;22.00
66027;BMP280;56312;55.976;37.136;2024-02-28T08:36:35;99520.88;;;22.01
66027;BMP280;56312;55.976;37.136;2024-02-28T08:41:42;99517.31;;;22.02
66027;BMP280;56312;55.976;37.136;2024-02-28T08:46:48;99514.91;;;21.99
66027;BMP280;56312;55.976;37.136;2024-02-28T08:51:54;99517.16;;;22.60
66027;BMP280;56312;55.976;37.136;2024-02-28T08:57:00;99532.03;;;22.15
66027;BMP280;56312;55.976;37.136;2024-02-28T09:02:06;99518.00;;;22.61
66027;BMP280;56312;55.976;37.136;2024-02-28T09:07:13;99517.88;;;22.51
66027;BMP280;56312;55.976;37.136;2024-02-28T09:12:19;99514.84;;;22.34
66027;BMP280;56312;55.976;37.136;2024-02-28T09:44:26;99513.97;;;22.23
66027;BMP280;56312;55.976;37.136;2024-02-28T09:49:32;99526.41;;;21.86
66027;BMP280;56312;55.976;37.136;2024-02-28T09:54:42;99532.63;;;21.72
66027;BMP280;56312;55.976;37.136;2024-02-28T09:59:49;99519.31;;;21.52
66027;BMP280;56312;55.976;37.136;2024-02-28T10:30:20;99499.34;;;21.74
66027;BMP280;56312;55.976;37.136;2024-02-28T10:35:26;99502.09;;;21.73
66027;BMP280;56312;55.976;37.136;2024-02-28T10:40:32;99493.47;;;21.83
66027;BMP280;56312;55.976;37.136;2024-02-28T10:45:38;99496.13;;;21.94
66027;BMP280;56312;55.976;37.136;2024-02-28T10:50:45;99488.06;;;22.20
66027;BMP280;56312;55.976;37.136;2024-02-28T10:55:52;99510.44;;;22.01
66027;BMP280;56312;55.976;37.136;2024-02-28T11:01:05;99496.38;;;22.70
66027;BMP280;56312;55.976;37.136;2024-02-28T11:06:17;99488.28;;;23.59
66027;BMP280;56312;55.976;37.136;2024-02-28T11:11:31;99472.38;;;24.13
66027;BMP280;56312;55.976;37.136;2024-02-28T11:16:37;99467.81;;;24.15
66027;BMP280;56312;55.976;37.136;2024-02-28T11:28:05;99471.19;;;23.75
66027;BMP280;56312;55.976;37.136;2024-02-28T11:33:13;99470.22;;;23.76
66027;BMP280;56312;55.976;37.136;2024-02-28T11:38:20;99474.50;;;23.77
66027;BMP280;56312;55.976;37.136;2024-02-28T11:43:27;99470.44;;;24.04
66027;BMP280;56312;55.976;37.136;2024-02-28T11:48:33;99467.13;;;24.02
66027;BMP280;56312;55.976;37.136;2024-02-28T11:53:39;99454.91;;;24.12
66027;BMP280;56312;55.976;37.136;2024-02-28T11:58:51;99460.13;;;24.92
66027;BMP280;56312;55.976;37.136;2024-02-28T12:03:58;99439.50;;;24.38
66027;BMP280;56312;55.976;37.136;2024-02-28T12:09:04;99459.00;;;23.00
66027;BMP280;56312;55.976;37.136;2024-02-28T12:14:16;99446.13;;;22.43
66027;BMP280;56312;55.976;37.136;2024-02-28T12:19:23;99442.06;;;22.39
66027;BMP280;56312;55.976;37.136;2024-02-28T12:24:29;99445.16;;;22.33
66027;BMP280;56312;55.976;37.136;2024-02-28T12:29:35;99436.78;;;22.18
66027;BMP280;56312;55.976;37.136;2024-02-28T12:34:41;99436.91;;;22.16
66027;BMP280;56312;55.976;37.136;2024-02-28T12:39:47;99443.25;;;22.35
66027;BMP280;56312;55.976;37.136;2024-02-28T12:44:53;99437.53;;;22.20
66027;BMP280;56312;55.976;37.136;2024-02-28T12:49:59;99428.59;;;22.22
66027;BMP280;56312;55.976;37.136;2024-02-28T12:55:05;99430.25;;;22.23
66027;BMP280;56312;55.976;37.136;2024-02-28T13:00:11;99420.72;;;22.11
66027;BMP280;56312;55.976;37.136;2024-02-28T13:05:17;99430.19;;;22.01
66027;BMP280;56312;55.976;37.136;2024-02-28T13:10:23;99430.91;;;22.03
66027;BMP280;56312;55.976;37.136;2024-02-28T13:15:29;99427.91;;;21.97
66027;BMP280;56312;55.976;37.136;2024-02-28T13:20:35;99435.63;;;22.32
66027;BMP280;56312;55.976;37.136;2024-02-28T13:25:40;99429.19;;;22.25
66027;BMP280;56312;55.976;37.136;2024-02-28T13:30:46;99439.78;;;22.24
66027;BMP280;56312;55.976;37.136;2024-02-28T13:35:54;99441.78;;;22.20
66027;BMP280;56312;55.976;37.136;2024-02-28T13:41:00;99432.84;;;22.23
66027;BMP280;56312;55.976;37.136;2024-02-28T13:46:06;99435.34;;;22.14
66027;BMP280;56312;55.976;37.136;2024-02-28T13:51:12;99434.94;;;21.96
66027;BMP280;56312;55.976;37.136;2024-02-28T13:56:18;99430.81;;;22.05
66027;BMP280;56312;55.976;37.136;2024-02-28T14:01:23;99421.38;;;22.02
66027;BMP280;56312;55.976;37.136;2024-02-28T14:06:29;99418.09;;;22.11
66027;BMP280;56312;55.976;37.136;2024-02-28T14:11:35;99417.06;;;21.91
66027;BMP280;56312;55.976;37.136;2024-02-28T14:16:41;99403.84;;;21.92
66027;BMP280;56312;55.976;37.136;2024-02-28T14:21:48;99400.16;;;21.84
66027;BMP280;56312;55.976;37.136;2024-02-28T14:26:55;99401.50;;;21.89
66027;BMP280;56312;55.976;37.136;2024-02-28T14:32:01;99414.56;;;21.89
66027;BMP280;56312;55.976;37.136;2024-02-28T14:37:07;99406.91;;;21.75
66027;BMP280;56312;55.976;37.136;2024-02-28T14:42:13;99407.13;;;21.72
66027;BMP280;56312;55.976;37.136;2024-02-28T14:47:19;99403.94;;;21.69
66027;BMP280;56312;55.976;37.136;2024-02-28T14:52:28;99397.19;;;21.88
66027;BMP280;56312;55.976;37.136;2024-02-28T14:57:34;99401.25;;;21.92
66027;BMP280;56312;55.976;37.136;2024-02-28T15:02:41;99405.53;;;21.93
66027;BMP280;56312;55.976;37.136;2024-02-28T15:07:48;99415.50;;;21.88
66027;BMP280;56312;55.976;37.136;2024-02-28T15:12:54;99420.28;;;21.94
66027;BMP280;56312;55.976;37.136;2024-02-28T15:18:00;99410.25;;;21.88
66027;BMP280;56312;55.976;37.136;2024-02-28T15:23:07;99412.56;;;21.92
66027;BMP280;56312;55.976;37.136;2024-02-28T15:28:13;99413.75;;;21.89
66027;BMP280;56312;55.976;37.136;2024-02-28T15:33:19;99416.25;;;21.67
66027;BMP280;56312;55.976;37.136;2024-02-28T15:38:25;99423.72;;;21.61
66027;BMP280;56312;55.976;37.136;2024-02-28T15:43:31;99419.28;;;21.73
66027;BMP280;56312;55.976;37.136;2024-02-28T15:48:37;99424.38;;;21.52
66027;BMP280;56312;55.976;37.136;2024-02-28T15:53:43;99426.59;;;21.45
66027;BMP280;56312;55.976;37.136;2024-02-28T15:58:49;99425.78;;;21.45
66027;BMP280;56312;55.976;37.136;2024-02-28T16:03:55;99427.81;;;21.29
66027;BMP280;56312;55.976;37.136;2024-02-28T16:09:01;99428.47;;;21.20
66027;BMP280;56312;55.976;37.136;2024-02-28T16:14:06;99441.66;;;21.19
66027;BMP280;56312;55.976;37.136;2024-02-28T16:19:12;99437.91;;;21.69
66027;BMP280;56312;55.976;37.136;2024-02-28T16:24:18;99426.66;;;21.33
66027;BMP280;56312;55.976;37.136;2024-02-28T16:29:24;99421.91;;;21.15
66027;BMP280;56312;55.976;37.136;2024-02-28T16:34:30;99408.66;;;21.06
66027;BMP280;56312;55.976;37.136;2024-02-28T16:39:36;99419.50;;;21.12
66027;BMP280;56312;55.976;37.136;2024-02-28T16:44:42;99414.16;;;21.13
66027;BMP280;56312;55.976;37.136;2024-02-28T16:49:48;99419.78;;;21.20
66027;BMP280;56312;55.976;37.136;2024-02-28T16:54:54;99412.16;;;21.17
66027;BMP280;56312;55.976;37.136;2024-02-28T17:00:00;99415.94;;;21.13
66027;BMP280;56312;55.976;37.136;2024-02-28T17:05:06;99403.47;;;21.29
66027;BMP280;56312;55.976;37.136;2024-02-28T17:10:14;99403.38;;;21.18
66027;BMP280;56312;55.976;37.136;2024-02-28T17:15:19;99403.78;;;21.24
66027;BMP280;56312;55.976;37.136;2024-02-28T17:20:25;99409.28;;;21.09
66027;BMP280;56312;55.976;37.136;2024-02-28T17:25:32;99412.66;;;21.34
66027;BMP280;56312;55.976;37.136;2024-02-28T17:30:38;99400.38;;;21.47
66027;BMP280;56312;55.976;37.136;2024-02-28T17:35:43;99407.00;;;21.05
66027;BMP280;56312;55.976;37.136;2024-02-28T17:40:50;99404.47;;;21.03
66027;BMP280;56312;55.976;37.136;2024-02-28T17:45:56;99416.94;;;20.87
66027;BMP280;56312;55.976;37.136;2024-02-28T17:51:06;99418.97;;;20.84
66027;BMP280;56312;55.976;37.136;2024-02-28T17:56:13;99413.00;;;20.82
66027;BMP280;56312;55.976;37.136;2024-02-28T18:01:18;99408.06;;;20.90
66027;BMP280;56312;55.976;37.136;2024-02-28T18:06:24;99417.50;;;20.80
66027;BMP280;56312;55.976;37.136;2024-02-28T18:11:30;99412.06;;;20.71
66027;BMP280;56312;55.976;37.136;2024-02-28T18:16:37;99408.00;;;20.67
66027;BMP280;56312;55.976;37.136;2024-02-28T18:21:43;99398.22;;;21.06
66027;BMP280;56312;55.976;37.136;2024-02-28T18:26:49;99400.69;;;20.84
66027;BMP280;56312;55.976;37.136;2024-02-28T18:31:55;99391.66;;;20.65
66027;BMP280;56312;55.976;37.136;2024-02-28T18:37:01;99389.31;;;20.48
66027;BMP280;56312;55.976;37.136;2024-02-28T18:42:07;99386.41;;;20.40
66027;BMP280;56312;55.976;37.136;2024-02-28T18:47:13;99385.47;;;20.29
66027;BMP280;56312;55.976;37.136;2024-02-28T18:52:19;99389.53;;;20.33
66027;BMP280;56312;55.976;37.136;2024-02-28T18:57:25;99380.34;;;20.40
66027;BMP280;56312;55.976;37.136;2024-02-28T19:02:31;99376.19;;;20.25
66027;BMP280;56312;55.976;37.136;2024-02-28T19:07:38;99376.41;;;20.22
66027;BMP280;56312;55.976;37.136;2024-02-28T19:12:44;99383.94;;;20.14
66027;BMP280;56312;55.976;37.136;2024-02-28T19:17:52;99375.03;;;19.92
66027;BMP280;56312;55.976;37.136;2024-02-28T19:22:58;99365.00;;;19.86
66027;BMP280;56312;55.976;37.136;2024-02-28T19:28:04;99368.88;;;19.81
66027;BMP280;56312;55.976;37.136;2024-02-28T19:33:10;99372.00;;;19.86
66027;BMP280;56312;55.976;37.136;2024-02-28T19:38:16;99363.78;;;19.79
66027;BMP280;56312;55.976;37.136;2024-02-28T19:43:22;99351.63;;;19.66
66027;BMP280;56312;55.976;37.136;2024-02-28T19:48:28;99363.94;;;19.64
66027;BMP280;56312;55.976;37.136;2024-02-28T19:53:34;99362.47;;;19.60
66027;BMP280;56312;55.976;37.136;2024-02-28T19:58:40;99357.94;;;19.76
66027;BMP280;56312;55.976;37.136;2024-02-28T20:03:49;99354.97;;;19.68
66027;BMP280;56312;55.976;37.136;2024-02-28T20:08:55;99353.56;;;19.77
66027;BMP280;56312;55.976;37.136;2024-02-28T20:14:01;99365.34;;;19.56
66027;BMP280;56312;55.976;37.136;2024-02-28T20:19:07;99369.81;;;19.42
66027;BMP280;56312;55.976;37.136;2024-02-28T20:24:13;99362.97;;;19.53
66027;BMP280;56312;55.976;37.136;2024-02-28T20:29:19;99362.41;;;19.48
66027;BMP280;56312;55.976;37.136;2024-02-28T20:34:25;99366.28;;;19.55
66027;BMP280;56312;55.976;37.136;2024-02-28T20:39:31;99361.75;;;19.45
66027;BMP280;56312;55.976;37.136;2024-02-28T20:44:36;99373.25;;;19.80
66027;BMP280;56312;55.976;37.136;2024-02-28T20:49:42;99368.91;;;19.67
66027;BMP280;56312;55.976;37.136;2024-02-28T20:54:48;99368.59;;;19.59
66027;BMP280;56312;55.976;37.136;2024-02-28T20:59:55;99362.22;;;19.63
66027;BMP280;56312;55.976;37.136;2024-02-28T21:05:01;99365.78;;;19.62
66027;BMP280;56312;55.976;37.136;2024-02-28T21:10:08;99373.56;;;19.76
66027;BMP280;56312;55.976;37.136;2024-02-28T21:15:14;99371.28;;;19.84
66027;BMP280;56312;55.976;37.136;2024-02-28T21:20:21;99379.44;;;19.53
66027;BMP280;56312;55.976;37.136;2024-02-28T21:25:28;99378.78;;;19.76
66027;BMP280;56312;55.976;37.136;2024-02-28T21:30:34;99385.47;;;19.54
66027;BMP280;56312;55.976;37.136;2024-02-28T21:35:39;99385.50;;;19.40
66027;BMP280;56312;55.976;37.136;2024-02-28T21:40:47;99379.44;;;19.27
66027;BMP280;56312;55.976;37.136;2024-02-28T21:45:53;99389.75;;;19.29
66027;BMP280;56312;55.976;37.136;2024-02-28T21:50:59;99392.31;;;19.43
66027;BMP280;56312;55.976;37.136;2024-02-28T21:56:06;99390.75;;;19.14
66027;BMP280;56312;55.976;37.136;2024-02-28T22:01:12;99393.56;;;19.37
66027;BMP280;56312;55.976;37.136;2024-02-28T22:06:18;99403.66;;;19.16
66027;BMP280;56312;55.976;37.136;2024-02-28T22:11:23;99404.31;;;19.19
66027;BMP280;56312;55.976;37.136;2024-02-28T22:16:29;99406.78;;;18.95
66027;BMP280;56312;55.976;37.136;2024-02-28T22:21:35;99404.00;;;18.84
66027;BMP280;56312;55.976;37.136;2024-02-28T22:26:41;99400.66;;;18.96
66027;BMP280;56312;55.976;37.136;2024-02-28T22:31:48;99396.38;;;18.95
66027;BMP280;56312;55.976;37.136;2024-02-28T22:36:54;99385.72;;;19.11
66027;BMP280;56312;55.976;37.136;2024-02-28T22:42:00;99403.97;;;18.97
66027;BMP280;56312;55.976;37.136;2024-02-28T22:47:06;99388.16;;;19.14
66027;BMP280;56312;55.976;37.136;2024-02-28T22:52:11;99397.09;;;18.97
66027;BMP280;56312;55.976;37.136;2024-02-28T22:57:18;99393.97;;;18.92
66027;BMP280;56312;55.976;37.136;2024-02-28T23:02:25;99396.38;;;18.95
66027;BMP280;56312;55.976;37.136;2024-02-28T23:07:30;99393.13;;;18.91
66027;BMP280;56312;55.976;37.136;2024-02-28T23:12:36;99391.66;;;18.87
66027;BMP280;56312;55.976;37.136;2024-02-28T23:17:42;99389.41;;;19.21
66027;BMP280;56312;55.976;37.136;2024-02-28T23:22:48;99372.03;;;18.96
66027;BMP280;56312;55.976;37.136;2024-02-28T23:27:57;99375.50;;;19.08
66027;BMP280;56312;55.976;37.136;2024-02-28T23:33:04;99373.66;;;19.10
66027;BMP280;56312;55.976;37.136;2024-02-28T23:38:13;99376.94;;;19.00
66027;BMP280;56312;55.976;37.136;2024-02-28T23:43:19;99377.09;;;19.11
66027;BMP280;56312;55.976;37.136;2024-02-28T23:48:24;99368.22;;;19.13
66027;BMP280;56312;55.976;37.136;2024-02-28T23:53:30;99362.59;;;19.07
66027;BMP280;56312;55.976;37.136;2024-02-28T23:58:36;99360.84;;;18.94
